Jacky Planchard

Jacky Planchard

Statistiques 2026

  • Courses courues : 26
  • Nb de victoires : -
  • Nb de places : 2
  • Écart gagnant : 29
  • Réussite à la gagne : -
  • Réussite à la place : 8%
Musique : 9a 4a Da 8a Da 0a 0a 4a Da 4a Da 5a Da Da 4a 5a 7a 9a
DateRangCatégorieAlloc.Dist.HippodromeChevalRed. KmSpé.
03/08/25 D Mixte 26 000€ 3 025m Rochefort Sur Loire Hulk Vivanciere Attelé
03/08/25 9 Mixte 12 500€ 2 400m Rochefort Sur Loire Majestik Winder Attelé
31/07/25 7 Trot 17 500€ 2 725m Pornichet La Baule Lascar Nemo 1'17"1 Attelé
28/07/25 0 Mixte 18 000€ 2 925m Guerlesquin Katheo Winder Attelé
28/07/25 2 Mixte 14 000€ 2 900m Guerlesquin L'Amiral Winder Attelé
27/07/25 5 Trot 20 000€ 2 900m Guerlesquin Jasmin Vivanciere Attelé
27/07/25 4 Trot 14 500€ 2 925m Guerlesquin Kaid Bourgeois Attelé
19/07/25 4 Trot 26 000€ 3 050m Montier En Der Hulk Vivanciere Attelé
19/07/25 7 Trot 14 000€ 3 050m Montier En Der Made In Kacy Attelé
14/07/25 1 Mixte 15 500€ 2 725m Le Dorat Katheo Winder Attelé
13/07/25 7 Trot 18 500€ 2 650m Saint Jean De Monts Kheo Vivanciere Attelé
07/07/25 6 Trot 23 000€ 3 000m Chateaubriant Kelly Baroque 1'18"5 Attelé
06/07/25 1 Mixte 23 000€ 3 125m La Gacilly Hulk Vivanciere Attelé
06/07/25 D Mixte 12 500€ 2 300m La Gacilly L'Amiral Winder Attelé
06/07/25 8 Mixte 14 000€ 2 300m La Gacilly Magie Thoris Attelé
26/06/25 0 Trot 27 000€ 2 850m Laval Kheo Vivanciere Attelé
21/06/25 D Mixte 13 500€ 2 625m Saint Pierre La Cour Louviana Attelé
15/06/25 2 Trot 23 000€ 2 625m Cherbourg Jasmin Vivanciere 1'14"4 Attelé
09/06/25 2 Trot 14 000€ 3 100m Nort Sur Erdre L'Amiral Winder Attelé
08/06/25 D Mixte 12 500€ 2 600m Savenay Mouzarat Attelé
02/06/25 5 Trot 37 000€ 2 800m Vichy Hulk Vivanciere 1'14"2 Attelé lire

Longtemps à l'arrière-garde, s'est rapproché tout au long du dernier tournant avant de bien terminer tout en penchant.

01/06/25 8 Mixte 20 000€ 3 225m Landivisiau Flocon Montjeanais Attelé
29/05/25 2 Trot 14 000€ 2 500m Savigny Sur Braye L'Amiral Winder Attelé
18/05/25 4 Trot 15 000€ 2 725m Lisieux Louviana Attelé
18/05/25 6 Trot 15 000€ 2 725m Lisieux Mouzarat Attelé
11/05/25 1 Trot 18 500€ 2 825m Rambouillet Kheo Vivanciere Attelé
11/05/25 0 Trot 50 000€ 2 800m Rambouillet Flocon Montjeanais Attelé lire

Après avoir figuré, n'a pas été menaçant dans la phase finale.

08/05/25 2 Mixte 23 000€ 3 225m Vannes Hulk Vivanciere Attelé
04/05/25 1 Mixte 15 500€ 2 725m Pontivy Katheo Winder Attelé
04/05/25 D Mixte 15 500€ 2 700m Pontivy Jussie Attelé
04/05/25 7 Mixte 13 500€ 2 700m Pontivy L'Amiral Winder Attelé
01/05/25 1 Mixte 23 000€ 3 225m Fougeres Hulk Vivanciere Attelé
01/05/25 D Mixte 14 000€ 3 200m Fougeres Louviana Attelé
27/04/25 D Trot 18 000€ 3 225m Vitre Jessylona Attelé
27/04/25 D Trot 16 000€ 2 700m Vitre Kelly Baroque Attelé
27/04/25 6 Trot 12 500€ 2 050m Vitre Mouzarat Attelé
21/04/25 1 Mixte 12 500€ 2 600m Blain Made In Kacy Attelé
20/04/25 0 Trot 21 000€ 2 800m Rambouillet Harry d'yvi Attelé
20/04/25 4 Trot 18 500€ 2 825m Rambouillet Kheo Vivanciere Attelé
20/04/25 8 Trot 16 000€ 2 000m Rambouillet Mouzarat Attelé
13/04/25 7 Trot 50 000€ 3 500m Tours Flocon Montjeanais 1'14"5 Attelé lire

Après avoir évolué en retrait, n'a pu que terminer honorablement.

06/04/25 1 Mixte 15 500€ 2 825m Carhaix Katheo Winder Attelé
06/04/25 D Mixte 15 500€ 2 800m Carhaix Jessylona Attelé
30/03/25 3 Trot 18 500€ 2 825m Rambouillet Kheo Vivanciere Attelé
23/03/25 1 Mixte 23 000€ 3 225m Fougeres Hulk Vivanciere Attelé
23/03/25 9 Mixte 16 000€ 3 200m Fougeres Jessylona Attelé
12/03/25 9 Trot 24 000€ 2 850m Laval Kheo Vivanciere 1'15"8 Attelé
09/03/25 2 Mixte 12 500€ 3 250m Saumur Lascar Nemo Attelé
09/03/25 9 Mixte 12 500€ 3 250m Saumur L'Amiral Winder Attelé
06/03/25 8 Trot 18 000€ 2 850m Laval Mouzarat 1'18"1 Attelé